map of OOL home
OOL - Airport
Location
City:  Coolangatta/Gold Coast, Queensland, Australia
ICAO:YBCG
IATA:OOL

Details
Type:Airport (Aerodrome, Airfield)
Use:Public/Civil
Latitude:2809'52"S (-28.164443)
Longitude:15330'17"E (153.504722)
Datum:WGS 1984
Elevation:21 ft (6 m)
Variation:11.30E (WMM2015v2 magnetic declination)
-0.00 annual change
Runways:2
Longest:6699 × 148 ft (2042 × 45 m), paved

Time
Time Zone:UTC+10
Local Time:

Weather
METAR:YBCG 041400Z AUTO 24004KT 9999 // SCT028 22/21 Q1013 RF00.0/000.2
TAF:YBCG 040501Z 0406/0506 11012KT 9999 -SHRA SCT030
FM040900 12008KT 9999 -SHRA SCT025 SCT040
FM041200 20006KT 9999 -SHRA SCT020 BKN035
FM042300 12016KT 9999 -SHRA SCT030 SCT045 INTER 0410/0502 3000 SHRA SCT012 BKN020

Related Locations
Nearby:
Farthest:VDE: 11919 mi / 19183 km
Valverde [El Hierro], El Hierro Island, CN, ES

Find:

   beyond  
but within

Other Information
Maps:
NOTAMs:
Links:
Sources:

  
  • flag of Australia
  • flag of Queensland
  

Sectional Chart

Flight Planning
at skyvector.com

Satellite Image

Google Maps Satellite view

 

Copyright © 2004-2019 Karl L. Swartz. All rights reserved.
The Great Circle Mapper name and logo are trademarks of the Great Circle Mapper.
All other trademarks mentioned herein belong to their respective owners.
Please see credits for attibutions and further copyright information.

  Follow gcmap on Facebook Follow gcmap on Twitter GCmap on LinkedIn

hCard Microformat

Geo Microformat